Etusivu
METAR-TAF:

METAR-TAF

Lentoasemat :

Chengdu, Kiina

Chengdu Shuangliun kansainvälinen lentoasema

Leveyspiiri: 30-40N, Pituuspiiri: 104-01E, korkeus merenpinnasta: 508 m

Tämänhetkinen sää

Tämä raportti tehtiin 50 minuuttia sitten, kello 21.00 UTC
Tuuli 4 kn pohjoisesta, vaihdellen lännen/luoteen ja pohjoisen/koillisen välillä
Lämpötila 8°C
Kosteus 93%
Ilmanpaine 1019 hPa
Näkyvyys: 2500 m
Muutamia pilviä 500 ft:n korkeudessa
Hajanaisia pilviä 2000 ft:n korkeudessa
Hajonneita pilviä 3300 ft:n korkeudessa
heikkoa sadetta, utua

METAR: ZUUU 122100Z 35002MPS 300V030 2500 -RA BR FEW005 SCT020 BKN033 08/07 Q1019 NOSIG

Aika: 05:50 (21:50 UTC)

Sääennuste

Tämä raportti tehtiin 7 tuntia ja 41 minuuttia sitten, kello 14.09 UTC
Ennuste voimassa 12. päivästä klo 18 UTC - 13. päivään klo 18 UTC
Tuuli 6 kn pohjoisen/luoteesta
Näkyvyys: 3500 m
Hajanaisia pilviä 4000 ft:n korkeudessa
utua

TAF: ZUUU 121409Z 1218/1318 33003MPS 3500 BR SCT040 TX11/1307Z TN08/1223Z

Säähavainnot ja -ennusteet yli 4000 lentoasemalta (METAR- ja TAF-raportit).

Käytössä olevat sääasemat on merkitty karttaan keltaisilla ja punaisilla pisteillä.

Aseta hiiri pisteen päälle nähdäksesi sääaseman nimen.

Klikkaa sitten nähdäksesi säähavainnot ja -ennusteet.

Kartan vaihtaminen: klikkaa mustalla rastilla varustettuja vihreitä pisteitä, niin voit zoomata sisään; viivalla varustettua vihreää pistettä, niin voit zoomata ulos tai vihreitä nuolia, niin pääset viereisille kartoille.


METAR-TAF: